Time;durP1;ratioP1;P1;durP2;ratioP2;P2;SDS_P1;SDS_P2;PMS_P1;PMS_P2;Temp;Humidity;BMP_temperature;BMP_pressure;BME280_temperature;BME280_humidity;BME280_pressure;Samples;Min_cycle;Max_cycle;Signal;HPM_P1;HPM_P2
2023/12/19 00:00:07;;;;;;;8.50;1.33;;;11.50;99.90;;;;;;5028518;28;20029;-72
2023/12/19 00:02:33;;;;;;;11.10;1.92;;;11.60;99.90;;;;;;5025990;28;20025;-73
2023/12/19 00:04:58;;;;;;;14.20;1.30;;;11.50;99.90;;;;;;5022528;28;20037;-72
2023/12/19 00:07:24;;;;;;;16.83;1.77;;;11.50;99.90;;;;;;5029740;28;20727;-72
2023/12/19 00:09:51;;;;;;;5.28;1.25;;;11.50;99.90;;;;;;5027502;28;20029;-72
2023/12/19 00:12:16;;;;;;;7.88;1.40;;;11.50;99.90;;;;;;5022679;28;20045;-71
2023/12/19 00:14:42;;;;;;;8.13;1.30;;;11.50;99.90;;;;;;5026459;28;20042;-72
2023/12/19 00:17:08;;;;;;;8.57;2.03;;;11.50;99.90;;;;;;5023657;28;20041;-73
2023/12/19 00:19:33;;;;;;;8.15;1.88;;;11.50;99.90;;;;;;5027086;28;20474;-73
2023/12/19 00:21:59;;;;;;;12.30;1.38;;;11.50;99.90;;;;;;5028975;28;20124;-72
2023/12/19 00:24:25;;;;;;;15.45;1.52;;;11.50;99.90;;;;;;5022675;28;20033;-72
2023/12/19 00:26:50;;;;;;;3.38;0.88;;;11.50;99.90;;;;;;5028174;28;20077;-71
2023/12/19 00:29:16;;;;;;;5.68;1.83;;;11.50;99.90;;;;;;5032743;28;20037;-71
2023/12/19 00:31:42;;;;;;;4.80;1.58;;;11.50;99.90;;;;;;5021757;28;20509;-72
2023/12/19 00:34:08;;;;;;;6.82;1.23;;;11.50;99.90;;;;;;5029800;28;20048;-72
2023/12/19 00:36:34;;;;;;;7.28;0.80;;;11.50;99.90;;;;;;5028725;28;20032;-74
2023/12/19 00:38:59;;;;;;;3.38;0.73;;;11.50;99.90;;;;;;5025111;28;20045;-71
2023/12/19 00:41:25;;;;;;;5.10;1.17;;;11.50;99.90;;;;;;5027322;28;20603;-72
2023/12/19 00:43:51;;;;;;;13.20;1.40;;;11.50;99.90;;;;;;5024651;28;20996;-70
2023/12/19 00:46:16;;;;;;;3.83;1.25;;;11.60;99.90;;;;;;5025052;28;20400;-72
2023/12/19 00:48:42;;;;;;;24.50;1.73;;;11.50;99.90;;;;;;5027064;28;20606;-71
2023/12/19 00:51:10;;;;;;;9.73;0.85;;;11.60;99.90;;;;;;5023560;28;20044;-71
2023/12/19 00:53:36;;;;;;;2.17;0.50;;;11.60;99.90;;;;;;5025670;28;20108;-71
2023/12/19 00:56:02;;;;;;;5.55;1.40;;;11.50;99.90;;;;;;5026554;28;20409;-72
2023/12/19 00:58:27;;;;;;;7.95;1.42;;;11.50;99.90;;;;;;5042063;28;20009;-72
2023/12/19 01:00:53;;;;;;;2.60;1.25;;;11.50;99.90;;;;;;5054401;28;20093;-72
2023/12/19 01:03:19;;;;;;;10.52;1.85;;;11.50;99.90;;;;;;5024881;28;20048;-72
2023/12/19 01:05:44;;;;;;;13.23;1.23;;;11.50;99.90;;;;;;5023556;28;20048;-72
2023/12/19 01:08:10;;;;;;;8.25;2.28;;;11.60;99.90;;;;;;5029323;28;20044;-72
2023/12/19 01:10:36;;;;;;;6.03;0.90;;;11.60;99.90;;;;;;5027145;28;20501;-72
2023/12/19 01:13:02;;;;;;;13.32;1.08;;;11.60;99.90;;;;;;5028378;28;20036;-72
2023/12/19 01:15:27;;;;;;;3.30;0.82;;;11.60;99.90;;;;;;5027737;28;20029;-72
2023/12/19 01:17:53;;;;;;;6.38;1.17;;;11.60;99.90;;;;;;5025075;28;20099;-72
2023/12/19 01:20:19;;;;;;;5.65;0.80;;;11.60;99.90;;;;;;5025302;28;20044;-71
2023/12/19 01:22:45;;;;;;;7.78;1.25;;;11.50;99.90;;;;;;5024393;28;20121;-72
2023/12/19 01:25:10;;;;;;;6.82;1.42;;;11.50;99.90;;;;;;5022904;28;20064;-73
2023/12/19 01:27:36;;;;;;;6.32;1.30;;;11.40;99.90;;;;;;5027151;28;20121;-72
2023/12/19 01:30:02;;;;;;;2.88;1.85;;;11.40;99.90;;;;;;5024731;28;20167;-72
2023/12/19 01:32:28;;;;;;;6.75;1.52;;;11.40;99.90;;;;;;5018310;28;20072;-72
2023/12/19 01:34:53;;;;;;;10.73;2.92;;;11.40;99.90;;;;;;5027074;28;20386;-72
2023/12/19 01:37:19;;;;;;;4.63;1.17;;;11.50;99.90;;;;;;5030398;28;20029;-72
2023/12/19 01:39:45;;;;;;;10.15;1.33;;;11.50;99.90;;;;;;5024831;28;20041;-71
2023/12/19 01:42:10;;;;;;;11.02;1.33;;;11.50;99.90;;;;;;5029056;28;20452;-71
2023/12/19 01:44:36;;;;;;;7.95;1.15;;;11.50;99.90;;;;;;5023202;28;20729;-71
2023/12/19 01:47:01;;;;;;;10.38;1.27;;;11.50;99.90;;;;;;5026024;28;20466;-71
2023/12/19 01:49:27;;;;;;;8.10;1.45;;;11.50;99.90;;;;;;5028902;28;20043;-73
2023/12/19 01:51:54;;;;;;;5.82;1.15;;;11.50;99.90;;;;;;5021757;28;20036;-72
2023/12/19 01:54:20;;;;;;;5.45;1.17;;;11.60;99.90;;;;;;5023408;28;20128;-71
2023/12/19 01:56:46;;;;;;;26.60;3.05;;;11.50;99.90;;;;;;5026954;28;20095;-72
2023/12/19 01:59:12;;;;;;;11.18;1.98;;;11.60;99.90;;;;;;5019359;28;20030;-71
2023/12/19 02:01:39;;;;;;;13.45;1.33;;;11.60;99.90;;;;;;5027108;28;20057;-71
2023/12/19 02:04:06;;;;;;;4.10;1.67;;;11.70;99.90;;;;;;5027415;28;20028;-72
2023/12/19 02:06:34;;;;;;;6.90;1.58;;;11.70;99.90;;;;;;5026634;28;20051;-72
2023/12/19 02:09:01;;;;;;;12.07;0.80;;;11.70;99.90;;;;;;5029887;28;20135;-71
2023/12/19 02:11:27;;;;;;;8.98;1.38;;;11.80;99.90;;;;;;5026472;28;20125;-72
2023/12/19 02:13:53;;;;;;;4.82;1.48;;;11.80;99.90;;;;;;5029563;28;20110;-71
2023/12/19 02:16:19;;;;;;;11.55;1.35;;;11.80;99.90;;;;;;5030199;28;20029;-71
2023/12/19 02:18:58;;;;;;;6.30;1.33;;;11.80;99.90;;;;;;5028669;28;20052;-72
2023/12/19 02:21:24;;;;;;;9.23;1.30;;;11.70;99.90;;;;;;5028668;28;20116;-71
2023/12/19 02:23:50;;;;;;;7.28;1.40;;;11.80;99.90;;;;;;5026268;28;20124;-72
2023/12/19 02:26:15;;;;;;;6.63;1.20;;;11.80;99.90;;;;;;5020185;28;20045;-72
2023/12/19 02:28:41;;;;;;;8.88;2.20;;;11.80;99.90;;;;;;5025948;28;20509;-71
2023/12/19 02:31:06;;;;;;;5.82;1.67;;;11.80;99.90;;;;;;5021767;28;20128;-72
2023/12/19 02:33:32;;;;;;;7.68;1.70;;;11.70;99.90;;;;;;5022410;28;20041;-72
2023/12/19 02:35:58;;;;;;;7.30;1.15;;;11.70;99.90;;;;;;5028794;28;20099;-73
2023/12/19 02:38:23;;;;;;;4.40;1.08;;;11.60;99.90;;;;;;5025132;28;20057;-73
2023/12/19 02:40:49;;;;;;;18.67;2.15;;;11.50;99.90;;;;;;5028358;28;20393;-73
2023/12/19 02:43:14;;;;;;;4.53;1.42;;;11.50;99.90;;;;;;5026084;28;20746;-74
2023/12/19 02:45:40;;;;;;;4.75;0.88;;;11.40;99.90;;;;;;5023162;28;20458;-73
2023/12/19 02:48:06;;;;;;;3.17;1.52;;;11.40;99.90;;;;;;5029557;28;20028;-74
2023/12/19 02:50:32;;;;;;;4.18;1.05;;;11.40;99.90;;;;;;5025346;28;20029;-72
2023/12/19 02:52:57;;;;;;;7.18;1.35;;;11.40;99.90;;;;;;5022461;28;20044;-75
2023/12/19 02:55:23;;;;;;;13.57;0.90;;;11.40;99.90;;;;;;5024444;28;20037;-75
2023/12/19 02:57:49;;;;;;;3.05;1.13;;;11.40;99.90;;;;;;5021411;28;20029;-76
2023/12/19 03:00:14;;;;;;;11.13;1.50;;;11.30;99.90;;;;;;5022293;28;20022;-75
2023/12/19 03:02:42;;;;;;;11.15;2.30;;;11.30;99.90;;;;;;5025438;28;20033;-74
2023/12/19 03:05:08;;;;;;;9.38;2.28;;;11.30;99.90;;;;;;5025058;28;20082;-74
2023/12/19 03:07:33;;;;;;;12.13;2.97;;;11.30;99.90;;;;;;5029899;28;20032;-73
2023/12/19 03:09:59;;;;;;;15.05;1.85;;;11.30;99.90;;;;;;5030150;28;20091;-74
2023/12/19 03:12:24;;;;;;;12.98;2.28;;;11.30;99.90;;;;;;5019984;28;20038;-73
2023/12/19 03:14:50;;;;;;;4.68;1.27;;;11.30;99.90;;;;;;5024179;28;20584;-74
2023/12/19 03:17:16;;;;;;;15.48;1.63;;;11.30;99.90;;;;;;5028874;28;20029;-73
2023/12/19 03:19:42;;;;;;;8.63;1.10;;;11.20;99.90;;;;;;5020682;28;20521;-75
2023/12/19 03:22:07;;;;;;;8.25;1.10;;;11.20;99.90;;;;;;5027108;28;20029;-75
2023/12/19 03:24:33;;;;;;;10.10;1.58;;;11.30;99.90;;;;;;5032242;28;20401;-75
2023/12/19 03:26:58;;;;;;;5.97;1.67;;;11.30;99.90;;;;;;5029085;28;20071;-75
2023/12/19 03:29:24;;;;;;;9.65;0.88;;;11.30;99.90;;;;;;5030908;28;20033;-74
2023/12/19 03:31:50;;;;;;;6.55;1.50;;;11.30;99.90;;;;;;5025794;28;20175;-74
2023/12/19 03:34:15;;;;;;;8.07;1.40;;;11.30;99.90;;;;;;5031224;28;20114;-74
2023/12/19 03:36:41;;;;;;;7.68;1.38;;;11.30;99.90;;;;;;5037333;28;20026;-74
2023/12/19 03:39:07;;;;;;;9.88;1.08;;;11.30;99.90;;;;;;5027408;28;20561;-75
2023/12/19 03:41:32;;;;;;;2.28;0.73;;;11.30;99.90;;;;;;5030650;28;20037;-75
2023/12/19 03:43:58;;;;;;;9.60;1.88;;;11.30;99.90;;;;;;5025654;28;20021;-74
2023/12/19 03:46:24;;;;;;;17.10;1.50;;;11.30;99.90;;;;;;5022495;28;20078;-75
2023/12/19 03:48:49;;;;;;;5.85;1.50;;;11.40;99.90;;;;;;5027114;28;20033;-74
2023/12/19 03:51:15;;;;;;;4.50;1.60;;;11.40;99.90;;;;;;5026297;28;20029;-74
2023/12/19 03:53:43;;;;;;;13.02;2.28;;;11.40;99.90;;;;;;5043234;28;20052;-74
2023/12/19 03:56:08;;;;;;;8.23;1.83;;;11.40;99.90;;;;;;5047418;28;20556;-74
2023/12/19 03:58:34;;;;;;;14.35;1.63;;;11.40;99.90;;;;;;5025255;28;20039;-73
2023/12/19 04:01:01;;;;;;;9.27;1.48;;;11.50;99.90;;;;;;5024777;28;20044;-74
2023/12/19 04:03:26;;;;;;;18.30;1.40;;;11.40;99.90;;;;;;5029902;28;20033;-74
2023/12/19 04:05:52;;;;;;;9.85;1.75;;;11.40;99.90;;;;;;5026446;28;20029;-74
2023/12/19 04:08:18;;;;;;;16.45;1.45;;;11.40;99.90;;;;;;5031105;28;20069;-74
2023/12/19 04:10:43;;;;;;;11.48;2.00;;;11.40;99.90;;;;;;5031351;28;20040;-73
2023/12/19 04:13:09;;;;;;;5.63;1.15;;;11.40;99.90;;;;;;5024132;28;20037;-73
2023/12/19 04:15:35;;;;;;;5.75;1.15;;;11.50;99.90;;;;;;5030849;28;20591;-73
2023/12/19 04:18:00;;;;;;;3.58;1.15;;;11.40;99.90;;;;;;5026042;28;20069;-74
2023/12/19 04:20:26;;;;;;;10.48;1.17;;;11.40;99.90;;;;;;5026052;28;20101;-73
2023/12/19 04:22:51;;;;;;;3.85;0.85;;;11.40;99.90;;;;;;5028859;28;20076;-74
2023/12/19 04:25:17;;;;;;;8.48;1.00;;;11.40;99.90;;;;;;5030223;28;20079;-72
2023/12/19 04:27:43;;;;;;;5.30;1.38;;;11.40;99.90;;;;;;5028917;28;20045;-72
2023/12/19 04:30:09;;;;;;;3.65;1.27;;;11.40;99.90;;;;;;5028850;28;20045;-72
2023/12/19 04:32:34;;;;;;;11.77;2.00;;;11.40;99.90;;;;;;5016842;28;20665;-72
2023/12/19 04:35:00;;;;;;;15.48;1.58;;;11.40;99.90;;;;;;5029594;28;20052;-72
2023/12/19 04:37:25;;;;;;;7.85;1.58;;;11.50;99.90;;;;;;5030421;28;20409;-73
2023/12/19 04:39:51;;;;;;;5.20;0.85;;;11.40;99.90;;;;;;5026741;28;20033;-72
2023/12/19 04:42:18;;;;;;;8.90;1.55;;;11.40;99.90;;;;;;5031663;28;20570;-73
2023/12/19 04:44:45;;;;;;;10.30;1.80;;;11.40;99.90;;;;;;5027702;28;20049;-72
2023/12/19 04:47:11;;;;;;;5.13;1.60;;;11.40;99.90;;;;;;5025699;28;20037;-72
2023/12/19 04:49:37;;;;;;;8.40;1.05;;;11.40;99.90;;;;;;5029626;28;20037;-73
2023/12/19 04:52:03;;;;;;;9.40;2.28;;;11.50;99.90;;;;;;5025500;28;20053;-73
2023/12/19 04:54:29;;;;;;;10.15;2.10;;;11.50;99.90;;;;;;5027289;28;20130;-72
2023/12/19 04:56:54;;;;;;;4.68;1.48;;;11.50;99.90;;;;;;5030616;28;20127;-73
2023/12/19 04:59:20;;;;;;;8.65;1.17;;;11.40;99.90;;;;;;5026014;28;20037;-73
2023/12/19 05:01:46;;;;;;;7.30;1.10;;;11.40;99.90;;;;;;5025484;28;20300;-73
2023/12/19 05:04:12;;;;;;;8.23;1.17;;;11.40;99.90;;;;;;5016525;28;21133;-73
2023/12/19 05:06:37;;;;;;;5.50;0.73;;;11.40;99.90;;;;;;5022712;28;20734;-72
2023/12/19 05:09:03;;;;;;;9.30;1.85;;;11.40;99.90;;;;;;5032193;28;20041;-72
2023/12/19 05:11:29;;;;;;;6.28;1.83;;;11.40;99.90;;;;;;5023228;28;20068;-73
2023/12/19 05:13:55;;;;;;;13.10;1.92;;;11.40;99.90;;;;;;5019778;28;20043;-73
2023/12/19 05:16:20;;;;;;;5.93;1.33;;;11.40;99.90;;;;;;5026971;28;20120;-72
2023/12/19 05:18:46;;;;;;;7.50;1.30;;;11.40;99.90;;;;;;5024515;28;20034;-72
2023/12/19 05:21:12;;;;;;;6.65;1.17;;;11.40;99.90;;;;;;5027657;28;20041;-72
2023/12/19 05:23:39;;;;;;;12.30;2.70;;;11.40;99.90;;;;;;5030216;28;20033;-73
2023/12/19 05:26:06;;;;;;;8.95;0.85;;;11.40;99.90;;;;;;5028242;28;20418;-72
2023/12/19 05:28:34;;;;;;;6.93;2.30;;;11.40;99.90;;;;;;5033364;28;20143;-72
2023/12/19 05:31:00;;;;;;;2.53;0.88;;;11.40;99.90;;;;;;5028135;28;20124;-72
2023/12/19 05:33:28;;;;;;;6.45;1.60;;;11.40;99.90;;;;;;5021159;28;20033;-72
2023/12/19 05:35:55;;;;;;;12.15;1.25;;;11.40;99.90;;;;;;5028195;28;20056;-73
2023/12/19 05:38:22;;;;;;;3.10;1.40;;;11.40;99.90;;;;;;5024505;28;20451;-73
2023/12/19 05:40:48;;;;;;;5.53;0.82;;;11.40;99.90;;;;;;5029655;28;20115;-73
2023/12/19 05:43:14;;;;;;;3.33;1.10;;;11.40;99.90;;;;;;5026718;28;20029;-73
2023/12/19 05:45:40;;;;;;;4.13;1.10;;;11.40;99.90;;;;;;5024654;28;21040;-73
2023/12/19 05:48:07;;;;;;;12.40;2.17;;;11.40;99.90;;;;;;5028008;28;20044;-74
2023/12/19 05:50:32;;;;;;;5.18;1.13;;;11.40;99.90;;;;;;5026257;28;20029;-73
2023/12/19 05:52:58;;;;;;;8.02;0.77;;;11.40;99.90;;;;;;5026016;28;20382;-74
2023/12/19 05:55:24;;;;;;;3.65;1.55;;;11.40;99.90;;;;;;5025625;28;20040;-74
2023/12/19 05:57:49;;;;;;;4.05;0.93;;;11.40;99.90;;;;;;5029886;28;20121;-73
2023/12/19 06:00:16;;;;;;;5.65;1.67;;;11.40;99.90;;;;;;5023559;28;20107;-73
2023/12/19 06:02:41;;;;;;;7.05;1.67;;;11.40;99.90;;;;;;5027232;28;20116;-74
2023/12/19 06:05:09;;;;;;;3.63;1.00;;;11.40;99.90;;;;;;5022131;28;20040;-74
2023/12/19 06:07:36;;;;;;;9.30;1.67;;;11.40;99.90;;;;;;5024106;28;20217;-75
2023/12/19 06:10:03;;;;;;;6.72;1.17;;;11.40;99.90;;;;;;5031321;28;20040;-75
2023/12/19 06:12:30;;;;;;;6.40;1.55;;;11.40;99.90;;;;;;5025393;28;20037;-75
2023/12/19 06:14:55;;;;;;;7.47;1.58;;;11.40;99.90;;;;;;5028115;28;20094;-74
2023/12/19 06:17:21;;;;;;;5.78;1.33;;;11.40;99.90;;;;;;5025524;28;20079;-74
2023/12/19 06:19:47;;;;;;;6.82;2.15;;;11.40;99.90;;;;;;5009667;28;20121;-74
2023/12/19 06:22:12;;;;;;;7.78;1.52;;;11.40;99.90;;;;;;5027789;28;20033;-74
2023/12/19 06:24:38;;;;;;;11.02;1.88;;;11.40;99.90;;;;;;5025839;28;20041;-75
2023/12/19 06:27:04;;;;;;;5.28;1.10;;;11.40;99.90;;;;;;5022713;28;20133;-75
2023/12/19 06:29:29;;;;;;;18.63;2.08;;;11.40;99.90;;;;;;5010975;28;20045;-75
2023/12/19 06:31:55;;;;;;;16.90;1.27;;;11.40;99.90;;;;;;5019647;28;20069;-75
2023/12/19 06:34:21;;;;;;;7.90;1.58;;;11.40;99.90;;;;;;5026790;28;20511;-75
2023/12/19 06:36:46;;;;;;;8.05;1.23;;;11.30;99.90;;;;;;5026408;28;20044;-76
2023/12/19 06:39:12;;;;;;;5.97;1.30;;;11.30;99.90;;;;;;5024666;28;20025;-76
2023/12/19 06:41:38;;;;;;;3.38;1.30;;;11.40;99.90;;;;;;5030269;28;20640;-76
2023/12/19 06:44:03;;;;;;;9.52;1.20;;;11.40;99.90;;;;;;5033893;28;20033;-75
2023/12/19 06:46:29;;;;;;;2.63;0.98;;;11.30;99.90;;;;;;5026843;28;20039;-76
2023/12/19 06:48:55;;;;;;;12.13;2.85;;;11.40;99.90;;;;;;5033664;28;20033;-75
2023/12/19 06:51:23;;;;;;;5.50;1.13;;;11.30;99.90;;;;;;5035569;28;20030;-75
2023/12/19 06:53:50;;;;;;;9.07;1.55;;;11.40;99.90;;;;;;5056502;28;20037;-75
2023/12/19 06:56:16;;;;;;;11.52;2.17;;;11.40;99.90;;;;;;5049231;28;20385;-75
2023/12/19 06:58:42;;;;;;;1.50;1.05;;;11.40;99.90;;;;;;5029409;28;20025;-75
2023/12/19 07:01:07;;;;;;;17.38;1.50;;;11.40;99.90;;;;;;5024554;28;20392;-74
2023/12/19 07:03:33;;;;;;;3.45;1.05;;;11.40;99.90;;;;;;5021899;28;20049;-74
2023/12/19 07:05:59;;;;;;;6.60;1.50;;;11.40;99.90;;;;;;5026058;28;20060;-74
2023/12/19 07:08:25;;;;;;;5.03;1.77;;;11.40;99.90;;;;;;5030975;28;20036;-74
2023/12/19 07:10:52;;;;;;;2.22;1.17;;;11.40;99.90;;;;;;5020116;28;20308;-75
2023/12/19 07:13:18;;;;;;;5.65;2.38;;;11.30;99.90;;;;;;5019644;28;20045;-75
2023/12/19 07:15:43;;;;;;;18.80;2.10;;;11.40;99.90;;;;;;5025691;28;20099;-75
2023/12/19 07:18:09;;;;;;;5.95;0.95;;;11.40;99.90;;;;;;5028786;28;20030;-75
2023/12/19 07:20:34;;;;;;;15.13;1.95;;;11.40;99.90;;;;;;5025724;28;20409;-76
2023/12/19 07:23:00;;;;;;;5.25;1.80;;;11.40;99.90;;;;;;5031960;28;20037;-77
2023/12/19 07:25:26;;;;;;;4.20;1.33;;;11.40;99.90;;;;;;5032062;28;20064;-78
2023/12/19 07:27:51;;;;;;;11.60;1.77;;;11.40;99.90;;;;;;5031432;28;20059;-77
2023/12/19 07:30:17;;;;;;;12.25;1.80;;;11.50;99.90;;;;;;5029323;28;20599;-77
2023/12/19 07:32:43;;;;;;;6.72;1.48;;;11.40;99.90;;;;;;5025578;28;21977;-76
2023/12/19 07:35:09;;;;;;;10.95;1.63;;;11.40;99.90;;;;;;5028119;28;20033;-74
2023/12/19 07:37:36;;;;;;;8.18;1.20;;;11.40;99.90;;;;;;5030157;28;20080;-76
2023/12/19 07:40:02;;;;;;;1.52;1.10;;;11.40;99.90;;;;;;5028098;28;20022;-74
2023/12/19 07:42:28;;;;;;;6.20;2.45;;;11.40;99.90;;;;;;5028267;28;20078;-76
2023/12/19 07:44:53;;;;;;;11.80;1.75;;;11.40;99.90;;;;;;5030225;28;20747;-74
2023/12/19 07:47:19;;;;;;;16.85;2.40;;;11.50;99.90;;;;;;5023222;28;20037;-74
2023/12/19 07:49:44;;;;;;;7.32;1.27;;;11.50;99.90;;;;;;5028578;28;20509;-74
2023/12/19 07:52:10;;;;;;;4.72;1.55;;;11.50;99.90;;;;;;5029841;28;20053;-74
2023/12/19 07:54:36;;;;;;;9.13;1.52;;;11.50;99.90;;;;;;5025459;28;20022;-74
2023/12/19 07:57:01;;;;;;;8.80;1.98;;;11.50;99.90;;;;;;5036663;28;20040;-74
2023/12/19 07:59:27;;;;;;;17.42;1.88;;;11.50;99.90;;;;;;5026749;28;20033;-76
2023/12/19 08:01:53;;;;;;;4.80;1.30;;;11.50;99.90;;;;;;5026210;28;20025;-73
2023/12/19 08:04:19;;;;;;;21.80;2.45;;;11.50;99.90;;;;;;5030094;28;20036;-74
2023/12/19 08:06:44;;;;;;;6.43;1.10;;;11.60;99.90;;;;;;5029475;28;20044;-77
2023/12/19 08:09:11;;;;;;;9.73;2.42;;;11.50;99.90;;;;;;5028713;28;20033;-75
2023/12/19 08:11:37;;;;;;;5.25;1.42;;;11.50;99.90;;;;;;5027357;28;20096;-76
2023/12/19 08:14:03;;;;;;;6.28;1.55;;;11.60;99.90;;;;;;5024713;28;20091;-75
2023/12/19 08:16:28;;;;;;;8.65;1.90;;;11.60;99.90;;;;;;5029948;28;20037;-76
2023/12/19 08:18:54;;;;;;;8.98;2.38;;;11.60;99.90;;;;;;5029226;28;20037;-75
2023/12/19 08:21:20;;;;;;;2.50;0.90;;;11.50;99.90;;;;;;5026329;28;20118;-76
2023/12/19 08:23:47;;;;;;;5.95;1.45;;;11.60;99.90;;;;;;5031798;28;20204;-76
2023/12/19 08:26:12;;;;;;;9.30;1.50;;;11.60;99.90;;;;;;5030553;28;20040;-75
2023/12/19 08:28:38;;;;;;;4.47;1.65;;;11.60;99.90;;;;;;5029036;28;20056;-75
2023/12/19 08:31:04;;;;;;;16.92;3.50;;;11.60;99.90;;;;;;5026595;28;20558;-75
2023/12/19 08:33:29;;;;;;;9.30;1.48;;;11.60;99.90;;;;;;5023161;28;20120;-74
2023/12/19 08:35:55;;;;;;;8.40;2.80;;;11.60;99.90;;;;;;5030964;28;20596;-74
2023/12/19 08:38:21;;;;;;;3.28;1.08;;;11.60;99.90;;;;;;5032613;28;20043;-74
2023/12/19 08:40:46;;;;;;;19.85;2.80;;;11.60;99.90;;;;;;5025450;28;20029;-75
2023/12/19 08:43:12;;;;;;;5.65;1.35;;;11.60;99.90;;;;;;5025910;28;20156;-75
2023/12/19 08:45:38;;;;;;;2.92;1.17;;;11.60;99.90;;;;;;5026185;28;20140;-74
2023/12/19 08:48:04;;;;;;;14.77;1.38;;;11.60;99.90;;;;;;5028221;28;20039;-74
2023/12/19 08:50:30;;;;;;;9.10;1.48;;;11.60;99.90;;;;;;5031911;28;20067;-74
2023/12/19 08:52:56;;;;;;;11.40;2.60;;;11.60;99.90;;;;;;5029739;28;20033;-74
2023/12/19 08:55:22;;;;;;;14.50;2.15;;;11.60;99.90;;;;;;5027914;28;20088;-74
2023/12/19 08:57:50;;;;;;;14.02;2.03;;;11.60;99.90;;;;;;5029389;28;20030;-74
2023/12/19 09:00:17;;;;;;;5.60;1.45;;;11.60;99.90;;;;;;5021679;28;20053;-75
2023/12/19 09:02:43;;;;;;;3.22;1.35;;;11.60;99.90;;;;;;5019703;28;20029;-74
2023/12/19 09:05:15;;;;;;;6.07;1.48;;;11.60;99.90;;;;;;5025130;28;20401;-75
2023/12/19 09:07:42;;;;;;;7.72;1.65;;;11.60;99.90;;;;;;5020346;28;20091;-74
2023/12/19 09:10:10;;;;;;;8.38;1.40;;;11.60;99.90;;;;;;5026039;28;20025;-75
2023/12/19 09:12:36;;;;;;;5.70;1.88;;;11.60;99.90;;;;;;5023293;28;20029;-75
2023/12/19 09:15:02;;;;;;;2.40;1.10;;;11.60;99.90;;;;;;5023056;28;20032;-76
2023/12/19 09:17:29;;;;;;;12.52;2.45;;;11.60;99.90;;;;;;5025566;28;20025;-76
2023/12/19 09:19:55;;;;;;;1.70;0.95;;;11.60;99.90;;;;;;5024696;28;20036;-76
2023/12/19 09:22:22;;;;;;;15.82;1.77;;;11.60;99.90;;;;;;5025609;28;20060;-78
2023/12/19 09:24:48;;;;;;;12.05;3.03;;;11.60;99.90;;;;;;5029685;28;21102;-76
2023/12/19 09:27:13;;;;;;;3.38;0.75;;;11.60;99.90;;;;;;5027829;28;20075;-76
2023/12/19 09:29:40;;;;;;;8.77;1.67;;;11.70;99.90;;;;;;5028437;28;20033;-75
2023/12/19 09:32:07;;;;;;;3.13;0.95;;;11.70;99.90;;;;;;5029933;28;20044;-74
2023/12/19 09:34:34;;;;;;;8.48;2.42;;;11.70;99.90;;;;;;5019716;28;20489;-75
2023/12/19 09:37:00;;;;;;;8.93;2.45;;;11.70;99.90;;;;;;5024830;28;20026;-75
2023/12/19 09:39:26;;;;;;;9.77;1.98;;;11.70;99.90;;;;;;5023669;28;20027;-74
2023/12/19 09:41:53;;;;;;;17.08;1.98;;;11.70;99.90;;;;;;5025814;28;20021;-76
2023/12/19 09:44:19;;;;;;;11.90;2.33;;;11.60;99.90;;;;;;5024669;28;20124;-74
2023/12/19 09:46:49;;;;;;;5.80;1.73;;;11.70;99.90;;;;;;5019560;28;20040;-74
2023/12/19 09:49:21;;;;;;;6.38;2.22;;;11.60;99.90;;;;;;5026775;28;20433;-75
2023/12/19 09:51:51;;;;;;;13.13;1.98;;;11.60;99.90;;;;;;5026612;28;20033;-74
2023/12/19 09:54:20;;;;;;;6.75;2.22;;;11.70;99.90;;;;;;5020014;28;20493;-75
2023/12/19 09:56:47;;;;;;;3.72;2.22;;;11.60;99.90;;;;;;5028124;28;20033;-74
2023/12/19 09:59:15;;;;;;;8.45;2.40;;;11.70;99.90;;;;;;5031640;28;20029;-74
2023/12/19 10:01:42;;;;;;;7.07;1.20;;;11.70;99.90;;;;;;5019248;28;20526;-74
2023/12/19 10:04:13;;;;;;;10.07;2.22;;;11.60;99.90;;;;;;5025668;28;20431;-75
2023/12/19 10:06:55;;;;;;;13.43;1.33;;;11.70;99.90;;;;;;5022882;28;20071;-75
2023/12/19 10:09:22;;;;;;;12.07;2.35;;;11.70;99.90;;;;;;5011210;28;20383;-76
2023/12/19 10:12:09;;;;;;;10.98;2.25;;;11.70;99.90;;;;;;5027279;28;20137;-76
2023/12/19 10:14:36;;;;;;;6.80;1.40;;;11.60;99.90;;;;;;5016039;28;20068;-75
2023/12/19 10:17:04;;;;;;;16.05;1.67;;;11.70;99.90;;;;;;5011881;28;20026;-77
2023/12/19 10:19:33;;;;;;;8.85;1.92;;;11.70;99.90;;;;;;5025810;28;20408;-76
2023/12/19 10:22:08;;;;;;;9.00;2.15;;;11.70;99.90;;;;;;5022243;28;20716;-76
2023/12/19 10:24:35;;;;;;;7.32;1.98;;;11.70;99.90;;;;;;5023837;28;20183;-76
2023/12/19 10:27:02;;;;;;;2.97;1.52;;;11.70;99.90;;;;;;5023212;28;20048;-77
2023/12/19 10:29:36;;;;;;;15.02;1.75;;;11.70;99.90;;;;;;5038583;28;20017;-76
2023/12/19 10:32:20;;;;;;;10.73;2.42;;;11.70;99.90;;;;;;5055979;28;20033;-76
2023/12/19 10:34:56;;;;;;;4.05;1.85;;;11.70;99.90;;;;;;5022280;28;20052;-76
2023/12/19 10:37:27;;;;;;;15.32;1.67;;;11.70;99.90;;;;;;5022145;28;20033;-78
2023/12/19 10:40:12;;;;;;;6.07;1.92;;;11.70;99.90;;;;;;5024549;28;20060;-77
2023/12/19 10:42:38;;;;;;;6.70;1.48;;;11.70;99.90;;;;;;5025449;28;20041;-76
2023/12/19 10:45:05;;;;;;;16.25;1.08;;;11.70;99.90;;;;;;5027189;28;20413;-75
2023/12/19 10:47:32;;;;;;;4.32;1.27;;;11.70;99.90;;;;;;5019488;28;20040;-76
2023/12/19 10:49:58;;;;;;;8.13;1.88;;;11.80;99.90;;;;;;5024309;28;20366;-75
2023/12/19 10:52:27;;;;;;;11.43;1.80;;;11.70;99.90;;;;;;5026081;28;20037;-76
2023/12/19 10:55:06;;;;;;;;;;;11.80;99.90;;;;;;5025251;28;20402;-77
2023/12/19 10:57:36;;;;;;;10.05;2.00;;;11.70;99.90;;;;;;5031194;28;19920;-76
2023/12/19 11:00:10;;;;;;;2.20;0.95;;;11.80;99.90;;;;;;5032117;28;21168;-78
2023/12/19 11:02:56;;;;;;;11.98;1.52;;;11.80;99.90;;;;;;5035201;28;20515;-76
2023/12/19 11:05:46;;;;;;;5.80;1.50;;;11.70;99.90;;;;;;5028130;28;20064;-76
2023/12/19 11:08:14;;;;;;;8.52;1.75;;;11.70;99.90;;;;;;5015881;28;20040;-76
2023/12/19 11:10:45;;;;;;;13.82;1.98;;;11.80;99.90;;;;;;5023601;28;20370;-76
2023/12/19 11:13:12;;;;;;;2.60;1.20;;;11.80;99.90;;;;;;5028692;28;20044;-76
2023/12/19 11:15:47;;;;;;;10.70;1.63;;;11.70;99.90;;;;;;5022620;28;20029;-76
2023/12/19 11:18:26;;;;;;;3.35;1.35;;;11.70;99.90;;;;;;5023425;28;21496;-76
2023/12/19 11:21:01;;;;;;;6.25;1.23;;;11.70;99.90;;;;;;5020773;28;20061;-76
2023/12/19 11:23:56;;;;;;;2.05;1.13;;;11.70;99.90;;;;;;5027018;28;20036;-77
2023/12/19 11:26:32;;;;;;;2.75;0.95;;;11.80;99.90;;;;;;5042934;28;20117;-77
2023/12/19 11:28:59;;;;;;;0.65;0.65;;;11.80;99.90;;;;;;5032734;28;20044;-76
2023/12/19 11:31:32;;;;;;;10.70;1.60;;;11.80;99.90;;;;;;5026288;28;20036;-75
2023/12/19 11:34:01;;;;;;;2.45;0.90;;;11.80;99.90;;;;;;5028071;28;20044;-78
2023/12/19 11:36:28;;;;;;;5.43;0.93;;;11.80;99.90;;;;;;5029496;28;20855;-75
2023/12/19 11:39:24;;;;;;;9.80;1.17;;;11.80;99.90;;;;;;5029135;28;20029;-75
2023/12/19 11:41:51;;;;;;;12.20;1.02;;;11.80;99.90;;;;;;5020531;28;20611;-76
2023/12/19 11:44:38;;;;;;;1.52;0.75;;;11.80;99.90;;;;;;5039758;28;20040;-77
2023/12/19 11:47:21;;;;;;;1.67;1.20;;;11.90;99.90;;;;;;5044297;28;20059;-76
2023/12/19 11:49:48;;;;;;;3.67;1.17;;;11.90;99.90;;;;;;5045293;28;20033;-76
2023/12/19 11:52:32;;;;;;;2.42;0.88;;;11.90;99.90;;;;;;5050084;28;20057;-76
2023/12/19 11:54:59;;;;;;;5.03;0.80;;;11.90;99.90;;;;;;5047670;28;20036;-77
2023/12/19 11:57:25;;;;;;;2.95;1.20;;;11.90;99.90;;;;;;5041850;28;20025;-76
2023/12/19 11:59:54;;;;;;;9.63;1.15;;;12.00;99.90;;;;;;5034028;28;20025;-74
2023/12/19 12:02:37;;;;;;;3.65;0.80;;;12.00;99.90;;;;;;5024882;28;20102;-77
2023/12/19 12:05:06;;;;;;;5.88;1.92;;;12.00;99.90;;;;;;5038938;28;20144;-76
2023/12/19 12:07:33;;;;;;;8.27;0.90;;;12.00;99.90;;;;;;5033243;28;20494;-78
2023/12/19 12:10:04;;;;;;;3.05;1.20;;;12.00;99.90;;;;;;5036026;28;20045;-76
2023/12/19 12:12:33;;;;;;;1.80;0.93;;;12.00;99.90;;;;;;5040273;28;20033;-77
2023/12/19 12:15:08;;;;;;;5.82;1.25;;;12.00;99.90;;;;;;5029252;28;20125;-77
2023/12/19 12:17:36;;;;;;;12.55;1.27;;;12.00;99.90;;;;;;5031905;28;20035;-76
2023/12/19 12:20:03;;;;;;;0.10;0.10;;;12.00;99.90;;;;;;5028205;28;20106;-77
2023/12/19 12:22:32;;;;;;;0.22;0.22;;;11.80;99.90;;;;;;5021369;28;20163;-77
2023/12/19 12:24:59;;;;;;;0.30;0.30;;;11.60;99.90;;;;;;5025182;28;20052;-77
2023/12/19 12:27:27;;;;;;;0.10;0.10;;;11.50;99.90;;;;;;5027985;28;20130;-76
2023/12/19 12:29:54;;;;;;;0.00;0.00;;;11.60;99.90;;;;;;5029849;28;20401;-76
2023/12/19 12:32:21;;;;;;;0.15;0.15;;;11.50;99.90;;;;;;5030182;28;20512;-75
2023/12/19 12:34:47;;;;;;;0.00;0.00;;;11.50;99.90;;;;;;5029964;28;20136;-75
2023/12/19 12:37:21;;;;;;;0.00;0.00;;;11.50;99.90;;;;;;5031699;28;20029;-75
2023/12/19 12:39:47;;;;;;;0.10;0.10;;;11.50;99.90;;;;;;5030731;28;20619;-76
2023/12/19 12:42:20;;;;;;;0.00;0.00;;;11.50;99.90;;;;;;5025348;28;20041;-76